Little Rock Air Force Base
KLRF : rendu visible

Aérodrome :











RETROUVEZ-NOUS SUR...

 
LOGIN :

S'inscrire | Disclaimer

   EN    FR    IT 

 









Légende :    VFR   VFR Marginal   IFR   IFR Intensif   IFR Très Intensif
Visi : 
Plafond : 
>= 8 km
>= 3000ft
5 à 8 km
1000 à 3000 ft
1500m à 5 km
500 à 1000 ft
800 à 1500m
200 à 500 ft
< 800m
< 200 ft
Symboles :   Orages  Brouillard  Fortes neiges  Fortes précipitations  Vent > 20 kt






- Altitude de l'aérodrome : 311 ft


KLRF - Little Rock Air Force Base

DERNIER METAR :
  • 201856Z 16008KT 10SM FEW210 20/04 A3009 RMK AO2A SLP192 T01990044

METARs EXPIRÉS :
  • 201756Z 13009G15KT 10SM FEW210 20/03 A3010 RMK AO2A SLP196 T01960029 10199 20010
  • 201656Z 15006KT 10SM FEW210 17/05 A3014 RMK AO2A SLP209 T01740047

TAF TAF KLRF
Valide du 20 à 15h jusqu'au 21 à 21h UTC


201500Z 2015/2121 14006KT 9999 SCT250 QNH3009INS
BECMG 2017/2018 15010G15KT 9999 BKN200 BKN250 QNH3005INS
BECMG 2022/2023 15006KT 9999 BKN150 BKN250 WS020/18040KT QNH3007INS
BECMG 2105/2106 16003KT 9999 OVC030 WS020/19040KT QNH3008INS
BECMG 2112/2113 18009KT 9999 VCSH OVC016 WS020/20045KT QNH3004INS
BECMG 2115/2116 20009KT 9999 NSW OVC006 QNH3002INS TX18/2021Z TN09/2111Z



MET'MAP, la Météo Aéronautique d'un coup d'oeil ! - Copyright ORBIFLY Décembre 2007 - Disclaimer

ORBIFLY MET'MAP TEAM :

Programmation & Développement : Alexandra Zaïnal
Conception & Développement : Baudouin d'Aumeries
Co-Programmation & Développement : Marc-Olivier Méhu
Soutien technique & logistique : Manuel Goepfert

Contact : metmap@orbifly.com




SOURCES & CREDITS :

   NOAA       Earth
Advisory